sensor_id;sensor_type;location;lat;lon;timestamp;temperature;humidity
25450;DHT22;13371;52.080;5.624;2023-12-22T00:00:50;9.20;99.90
25450;DHT22;13371;52.080;5.624;2023-12-22T00:03:16;9.20;99.90
25450;DHT22;13371;52.080;5.624;2023-12-22T00:05:41;9.00;99.90
25450;DHT22;13371;52.080;5.624;2023-12-22T00:08:07;9.10;99.90
25450;DHT22;13371;52.080;5.624;2023-12-22T00:10:33;9.20;99.90
25450;DHT22;13371;52.080;5.624;2023-12-22T00:12:58;9.20;99.90
25450;DHT22;13371;52.080;5.624;2023-12-22T00:15:24;8.80;99.90
25450;DHT22;13371;52.080;5.624;2023-12-22T00:17:49;8.70;99.90
25450;DHT22;13371;52.080;5.624;2023-12-22T00:20:18;8.70;99.90
25450;DHT22;13371;52.080;5.624;2023-12-22T00:22:44;8.30;99.90
25450;DHT22;13371;52.080;5.624;2023-12-22T00:25:10;7.70;99.90
25450;DHT22;13371;52.080;5.624;2023-12-22T00:27:38;7.60;99.90
25450;DHT22;13371;52.080;5.624;2023-12-22T00:30:04;7.60;99.90
25450;DHT22;13371;52.080;5.624;2023-12-22T00:32:30;7.50;99.90
25450;DHT22;13371;52.080;5.624;2023-12-22T00:34:55;7.40;99.90
25450;DHT22;13371;52.080;5.624;2023-12-22T00:37:23;7.50;99.90
25450;DHT22;13371;52.080;5.624;2023-12-22T00:39:49;7.40;99.90
25450;DHT22;13371;52.080;5.624;2023-12-22T00:42:14;7.60;99.90
25450;DHT22;13371;52.080;5.624;2023-12-22T00:44:40;7.80;99.90
25450;DHT22;13371;52.080;5.624;2023-12-22T00:47:06;7.70;99.90
25450;DHT22;13371;52.080;5.624;2023-12-22T00:49:31;7.60;99.90
25450;DHT22;13371;52.080;5.624;2023-12-22T00:51:57;7.70;99.90
25450;DHT22;13371;52.080;5.624;2023-12-22T00:54:22;7.50;99.90
25450;DHT22;13371;52.080;5.624;2023-12-22T00:56:48;7.70;99.90
25450;DHT22;13371;52.080;5.624;2023-12-22T00:59:13;7.80;99.90
25450;DHT22;13371;52.080;5.624;2023-12-22T01:01:39;7.80;99.90
25450;DHT22;13371;52.080;5.624;2023-12-22T01:04:04;7.80;99.90
25450;DHT22;13371;52.080;5.624;2023-12-22T01:06:30;7.90;99.90
25450;DHT22;13371;52.080;5.624;2023-12-22T01:08:55;7.90;99.90
25450;DHT22;13371;52.080;5.624;2023-12-22T01:11:21;7.80;99.90
25450;DHT22;13371;52.080;5.624;2023-12-22T01:13:47;7.80;99.90
25450;DHT22;13371;52.080;5.624;2023-12-22T01:16:12;7.80;99.90
25450;DHT22;13371;52.080;5.624;2023-12-22T01:18:38;7.60;99.90
25450;DHT22;13371;52.080;5.624;2023-12-22T01:21:07;7.70;99.90
25450;DHT22;13371;52.080;5.624;2023-12-22T01:23:33;7.70;99.90
25450;DHT22;13371;52.080;5.624;2023-12-22T01:25:58;7.70;99.90
25450;DHT22;13371;52.080;5.624;2023-12-22T01:28:24;7.70;99.90
25450;DHT22;13371;52.080;5.624;2023-12-22T01:30:49;7.90;99.90
25450;DHT22;13371;52.080;5.624;2023-12-22T01:33:15;7.80;99.90
25450;DHT22;13371;52.080;5.624;2023-12-22T01:35:41;7.80;99.90
25450;DHT22;13371;52.080;5.624;2023-12-22T01:38:06;7.80;99.90
25450;DHT22;13371;52.080;5.624;2023-12-22T01:40:32;7.80;99.90
25450;DHT22;13371;52.080;5.624;2023-12-22T01:42:57;7.70;99.90
25450;DHT22;13371;52.080;5.624;2023-12-22T01:45:23;7.80;99.90
25450;DHT22;13371;52.080;5.624;2023-12-22T01:47:49;8.00;99.90
25450;DHT22;13371;52.080;5.624;2023-12-22T01:50:15;7.90;99.90
25450;DHT22;13371;52.080;5.624;2023-12-22T01:52:42;7.90;99.90
25450;DHT22;13371;52.080;5.624;2023-12-22T01:55:10;7.90;99.90
25450;DHT22;13371;52.080;5.624;2023-12-22T01:57:37;7.90;99.90
25450;DHT22;13371;52.080;5.624;2023-12-22T02:00:03;8.00;99.90
25450;DHT22;13371;52.080;5.624;2023-12-22T02:02:30;8.00;99.90
25450;DHT22;13371;52.080;5.624;2023-12-22T02:04:57;8.10;99.90
25450;DHT22;13371;52.080;5.624;2023-12-22T02:07:23;8.10;99.90
25450;DHT22;13371;52.080;5.624;2023-12-22T02:09:49;8.30;99.90
25450;DHT22;13371;52.080;5.624;2023-12-22T02:12:14;8.20;99.90
25450;DHT22;13371;52.080;5.624;2023-12-22T02:14:40;8.40;99.90
25450;DHT22;13371;52.080;5.624;2023-12-22T02:17:15;8.40;99.90
25450;DHT22;13371;52.080;5.624;2023-12-22T02:19:48;8.50;99.90
25450;DHT22;13371;52.080;5.624;2023-12-22T02:22:14;8.50;99.90
25450;DHT22;13371;52.080;5.624;2023-12-22T02:24:40;8.40;99.90
25450;DHT22;13371;52.080;5.624;2023-12-22T02:30:01;8.70;99.90
25450;DHT22;13371;52.080;5.624;2023-12-22T02:32:34;8.60;99.90
25450;DHT22;13371;52.080;5.624;2023-12-22T02:35:07;8.50;99.90
25450;DHT22;13371;52.080;5.624;2023-12-22T02:37:35;8.60;99.90
25450;DHT22;13371;52.080;5.624;2023-12-22T02:40:02;8.60;99.90
25450;DHT22;13371;52.080;5.624;2023-12-22T02:42:29;8.60;99.90
25450;DHT22;13371;52.080;5.624;2023-12-22T02:44:59;8.70;99.90
25450;DHT22;13371;52.080;5.624;2023-12-22T02:47:25;8.60;99.90
25450;DHT22;13371;52.080;5.624;2023-12-22T02:49:53;8.60;99.90
25450;DHT22;13371;52.080;5.624;2023-12-22T02:52:19;8.50;99.90
25450;DHT22;13371;52.080;5.624;2023-12-22T02:54:44;8.40;99.90
25450;DHT22;13371;52.080;5.624;2023-12-22T02:57:10;8.40;99.90
25450;DHT22;13371;52.080;5.624;2023-12-22T02:59:36;8.40;99.90
25450;DHT22;13371;52.080;5.624;2023-12-22T03:02:02;8.30;99.90
25450;DHT22;13371;52.080;5.624;2023-12-22T03:04:28;8.30;99.90
25450;DHT22;13371;52.080;5.624;2023-12-22T03:06:56;8.40;99.90
25450;DHT22;13371;52.080;5.624;2023-12-22T03:09:22;8.50;99.90
25450;DHT22;13371;52.080;5.624;2023-12-22T03:11:48;8.30;99.90
25450;DHT22;13371;52.080;5.624;2023-12-22T03:14:14;8.30;99.90
25450;DHT22;13371;52.080;5.624;2023-12-22T03:16:40;8.30;99.90
25450;DHT22;13371;52.080;5.624;2023-12-22T03:19:09;8.30;99.90
25450;DHT22;13371;52.080;5.624;2023-12-22T03:21:34;8.30;99.90
25450;DHT22;13371;52.080;5.624;2023-12-22T03:24:00;7.90;99.90
25450;DHT22;13371;52.080;5.624;2023-12-22T03:26:29;7.60;99.90
25450;DHT22;13371;52.080;5.624;2023-12-22T03:28:54;7.60;99.90
25450;DHT22;13371;52.080;5.624;2023-12-22T03:31:20;7.70;99.90
25450;DHT22;13371;52.080;5.624;2023-12-22T03:33:45;7.90;99.90
25450;DHT22;13371;52.080;5.624;2023-12-22T03:36:11;8.10;99.90
25450;DHT22;13371;52.080;5.624;2023-12-22T03:38:36;8.00;99.90
25450;DHT22;13371;52.080;5.624;2023-12-22T03:41:02;8.00;99.90
25450;DHT22;13371;52.080;5.624;2023-12-22T03:43:27;7.70;99.90
25450;DHT22;13371;52.080;5.624;2023-12-22T03:45:55;7.50;99.90
25450;DHT22;13371;52.080;5.624;2023-12-22T03:48:20;7.50;99.90
25450;DHT22;13371;52.080;5.624;2023-12-22T03:50:46;7.50;99.90
25450;DHT22;13371;52.080;5.624;2023-12-22T03:53:11;7.30;99.90
25450;DHT22;13371;52.080;5.624;2023-12-22T03:55:37;7.10;99.90
25450;DHT22;13371;52.080;5.624;2023-12-22T03:58:03;7.00;99.90
25450;DHT22;13371;52.080;5.624;2023-12-22T04:00:30;6.90;99.90
25450;DHT22;13371;52.080;5.624;2023-12-22T04:02:55;6.90;99.90
25450;DHT22;13371;52.080;5.624;2023-12-22T04:05:21;7.10;99.90
25450;DHT22;13371;52.080;5.624;2023-12-22T04:07:46;7.10;99.90
25450;DHT22;13371;52.080;5.624;2023-12-22T04:10:12;7.20;99.90
25450;DHT22;13371;52.080;5.624;2023-12-22T04:12:38;7.10;99.90
25450;DHT22;13371;52.080;5.624;2023-12-22T04:15:04;7.20;99.90
25450;DHT22;13371;52.080;5.624;2023-12-22T04:17:29;7.40;99.90
25450;DHT22;13371;52.080;5.624;2023-12-22T04:19:55;7.40;99.90
25450;DHT22;13371;52.080;5.624;2023-12-22T04:22:21;7.40;99.90
25450;DHT22;13371;52.080;5.624;2023-12-22T04:24:46;7.60;99.90
25450;DHT22;13371;52.080;5.624;2023-12-22T04:27:12;7.50;99.90
25450;DHT22;13371;52.080;5.624;2023-12-22T04:29:37;7.60;99.90
25450;DHT22;13371;52.080;5.624;2023-12-22T04:32:03;7.70;99.90
25450;DHT22;13371;52.080;5.624;2023-12-22T04:34:29;7.90;99.90
25450;DHT22;13371;52.080;5.624;2023-12-22T04:36:54;8.00;99.90
25450;DHT22;13371;52.080;5.624;2023-12-22T04:39:20;8.00;99.90
25450;DHT22;13371;52.080;5.624;2023-12-22T04:41:45;8.10;99.90
25450;DHT22;13371;52.080;5.624;2023-12-22T04:44:11;8.10;99.90
25450;DHT22;13371;52.080;5.624;2023-12-22T04:46:36;8.20;99.90
25450;DHT22;13371;52.080;5.624;2023-12-22T04:49:02;8.20;99.90
25450;DHT22;13371;52.080;5.624;2023-12-22T04:51:27;8.40;99.90
25450;DHT22;13371;52.080;5.624;2023-12-22T04:53:53;8.50;99.90
25450;DHT22;13371;52.080;5.624;2023-12-22T04:56:19;8.30;99.90
25450;DHT22;13371;52.080;5.624;2023-12-22T04:58:44;8.40;99.90
25450;DHT22;13371;52.080;5.624;2023-12-22T05:01:10;8.40;99.90
25450;DHT22;13371;52.080;5.624;2023-12-22T05:03:35;8.50;99.90
25450;DHT22;13371;52.080;5.624;2023-12-22T05:06:01;8.60;99.90
25450;DHT22;13371;52.080;5.624;2023-12-22T05:08:26;8.80;99.90
25450;DHT22;13371;52.080;5.624;2023-12-22T05:10:52;8.80;99.90
25450;DHT22;13371;52.080;5.624;2023-12-22T05:13:17;9.00;99.90
25450;DHT22;13371;52.080;5.624;2023-12-22T05:15:43;9.10;99.90
25450;DHT22;13371;52.080;5.624;2023-12-22T05:18:08;9.30;99.90
25450;DHT22;13371;52.080;5.624;2023-12-22T05:20:34;9.40;99.90
25450;DHT22;13371;52.080;5.624;2023-12-22T05:23:00;9.50;99.90
25450;DHT22;13371;52.080;5.624;2023-12-22T05:25:25;9.60;99.90
25450;DHT22;13371;52.080;5.624;2023-12-22T05:27:51;9.60;99.90
25450;DHT22;13371;52.080;5.624;2023-12-22T05:30:17;9.60;99.90
25450;DHT22;13371;52.080;5.624;2023-12-22T05:32:43;9.70;99.90
25450;DHT22;13371;52.080;5.624;2023-12-22T05:35:09;9.90;99.90
25450;DHT22;13371;52.080;5.624;2023-12-22T05:37:35;10.00;99.90
25450;DHT22;13371;52.080;5.624;2023-12-22T05:40:01;9.90;99.90
25450;DHT22;13371;52.080;5.624;2023-12-22T05:42:27;10.00;99.90
25450;DHT22;13371;52.080;5.624;2023-12-22T05:44:52;10.00;99.90
25450;DHT22;13371;52.080;5.624;2023-12-22T05:47:18;10.00;99.90
25450;DHT22;13371;52.080;5.624;2023-12-22T05:49:44;9.70;99.90
25450;DHT22;13371;52.080;5.624;2023-12-22T05:52:09;9.80;99.90
25450;DHT22;13371;52.080;5.624;2023-12-22T05:54:37;9.70;99.90
25450;DHT22;13371;52.080;5.624;2023-12-22T05:57:03;9.70;99.90
25450;DHT22;13371;52.080;5.624;2023-12-22T05:59:31;9.60;99.90
25450;DHT22;13371;52.080;5.624;2023-12-22T06:01:58;9.50;99.90
25450;DHT22;13371;52.080;5.624;2023-12-22T06:04:26;9.20;99.90
25450;DHT22;13371;52.080;5.624;2023-12-22T06:06:52;9.00;99.90
25450;DHT22;13371;52.080;5.624;2023-12-22T06:09:17;9.10;99.90
25450;DHT22;13371;52.080;5.624;2023-12-22T06:11:45;9.00;99.90
25450;DHT22;13371;52.080;5.624;2023-12-22T06:14:11;9.00;99.90
25450;DHT22;13371;52.080;5.624;2023-12-22T06:16:37;9.10;99.90
25450;DHT22;13371;52.080;5.624;2023-12-22T06:19:02;9.20;99.90
25450;DHT22;13371;52.080;5.624;2023-12-22T06:21:29;9.20;99.90
25450;DHT22;13371;52.080;5.624;2023-12-22T06:23:54;9.30;99.90
25450;DHT22;13371;52.080;5.624;2023-12-22T06:26:20;9.10;99.90
25450;DHT22;13371;52.080;5.624;2023-12-22T06:28:45;9.40;99.90
25450;DHT22;13371;52.080;5.624;2023-12-22T06:31:19;9.50;99.90
25450;DHT22;13371;52.080;5.624;2023-12-22T06:33:50;9.50;99.90
25450;DHT22;13371;52.080;5.624;2023-12-22T06:36:22;9.50;99.90
25450;DHT22;13371;52.080;5.624;2023-12-22T06:38:52;9.60;99.90
25450;DHT22;13371;52.080;5.624;2023-12-22T06:41:25;9.70;99.90
25450;DHT22;13371;52.080;5.624;2023-12-22T06:43:51;9.80;99.90
25450;DHT22;13371;52.080;5.624;2023-12-22T06:46:18;9.80;99.90
25450;DHT22;13371;52.080;5.624;2023-12-22T06:48:44;9.80;99.90
25450;DHT22;13371;52.080;5.624;2023-12-22T06:51:20;9.90;99.90
25450;DHT22;13371;52.080;5.624;2023-12-22T06:53:49;9.90;99.90
25450;DHT22;13371;52.080;5.624;2023-12-22T06:56:23;9.80;99.90
25450;DHT22;13371;52.080;5.624;2023-12-22T06:58:50;9.70;99.90
25450;DHT22;13371;52.080;5.624;2023-12-22T07:01:22;9.70;99.90
25450;DHT22;13371;52.080;5.624;2023-12-22T07:03:48;9.50;99.90
25450;DHT22;13371;52.080;5.624;2023-12-22T07:06:18;9.50;99.90
25450;DHT22;13371;52.080;5.624;2023-12-22T07:08:44;9.50;99.90
25450;DHT22;13371;52.080;5.624;2023-12-22T07:11:13;9.50;99.90
25450;DHT22;13371;52.080;5.624;2023-12-22T07:13:38;9.50;99.90
25450;DHT22;13371;52.080;5.624;2023-12-22T07:16:05;9.70;99.90
25450;DHT22;13371;52.080;5.624;2023-12-22T07:18:30;9.80;99.90
25450;DHT22;13371;52.080;5.624;2023-12-22T07:20:57;9.90;99.90
25450;DHT22;13371;52.080;5.624;2023-12-22T07:23:23;9.70;99.90
25450;DHT22;13371;52.080;5.624;2023-12-22T07:25:48;9.60;99.90
25450;DHT22;13371;52.080;5.624;2023-12-22T07:28:14;9.80;99.90
25450;DHT22;13371;52.080;5.624;2023-12-22T07:30:40;10.00;99.90
25450;DHT22;13371;52.080;5.624;2023-12-22T07:33:06;9.90;99.90
25450;DHT22;13371;52.080;5.624;2023-12-22T07:35:32;9.90;99.90
25450;DHT22;13371;52.080;5.624;2023-12-22T07:37:57;10.00;99.90
25450;DHT22;13371;52.080;5.624;2023-12-22T07:40:23;9.90;99.90
25450;DHT22;13371;52.080;5.624;2023-12-22T07:42:48;9.90;99.90
25450;DHT22;13371;52.080;5.624;2023-12-22T07:45:15;10.10;99.90
25450;DHT22;13371;52.080;5.624;2023-12-22T07:47:41;10.20;99.90
25450;DHT22;13371;52.080;5.624;2023-12-22T07:50:07;10.30;99.90
25450;DHT22;13371;52.080;5.624;2023-12-22T07:52:34;10.00;99.90
25450;DHT22;13371;52.080;5.624;2023-12-22T07:55:05;9.80;99.90
25450;DHT22;13371;52.080;5.624;2023-12-22T07:57:31;9.90;99.90
25450;DHT22;13371;52.080;5.624;2023-12-22T07:59:57;9.80;99.90
25450;DHT22;13371;52.080;5.624;2023-12-22T08:02:22;9.70;99.90
25450;DHT22;13371;52.080;5.624;2023-12-22T08:04:49;9.60;99.90
25450;DHT22;13371;52.080;5.624;2023-12-22T08:07:16;9.50;99.90
25450;DHT22;13371;52.080;5.624;2023-12-22T08:09:41;9.50;99.90
25450;DHT22;13371;52.080;5.624;2023-12-22T08:12:07;9.40;99.90
25450;DHT22;13371;52.080;5.624;2023-12-22T08:14:33;9.40;99.90
25450;DHT22;13371;52.080;5.624;2023-12-22T08:16:58;9.70;99.90
25450;DHT22;13371;52.080;5.624;2023-12-22T08:19:24;9.80;99.90
25450;DHT22;13371;52.080;5.624;2023-12-22T08:21:52;9.80;99.90
25450;DHT22;13371;52.080;5.624;2023-12-22T08:24:18;9.70;99.90
25450;DHT22;13371;52.080;5.624;2023-12-22T08:26:43;9.90;99.90
25450;DHT22;13371;52.080;5.624;2023-12-22T08:29:09;10.20;99.90
25450;DHT22;13371;52.080;5.624;2023-12-22T08:31:35;10.40;99.90
25450;DHT22;13371;52.080;5.624;2023-12-22T08:34:00;10.40;99.90
25450;DHT22;13371;52.080;5.624;2023-12-22T08:36:26;10.20;99.90
25450;DHT22;13371;52.080;5.624;2023-12-22T08:38:51;10.20;99.90
25450;DHT22;13371;52.080;5.624;2023-12-22T08:41:17;10.00;99.90
25450;DHT22;13371;52.080;5.624;2023-12-22T08:43:43;10.00;99.90
25450;DHT22;13371;52.080;5.624;2023-12-22T08:46:08;10.10;99.90
25450;DHT22;13371;52.080;5.624;2023-12-22T08:48:35;10.20;99.90
25450;DHT22;13371;52.080;5.624;2023-12-22T08:51:00;10.10;99.90
25450;DHT22;13371;52.080;5.624;2023-12-22T08:53:26;10.00;99.90
25450;DHT22;13371;52.080;5.624;2023-12-22T08:55:55;9.90;99.90
25450;DHT22;13371;52.080;5.624;2023-12-22T08:58:21;9.80;99.90
25450;DHT22;13371;52.080;5.624;2023-12-22T09:00:47;9.70;99.90
25450;DHT22;13371;52.080;5.624;2023-12-22T09:03:13;9.70;99.90
25450;DHT22;13371;52.080;5.624;2023-12-22T09:05:39;9.90;99.90
25450;DHT22;13371;52.080;5.624;2023-12-22T09:08:05;10.00;99.90
25450;DHT22;13371;52.080;5.624;2023-12-22T09:10:31;10.20;99.90
25450;DHT22;13371;52.080;5.624;2023-12-22T09:12:58;10.10;99.90
25450;DHT22;13371;52.080;5.624;2023-12-22T09:15:23;10.10;99.90
25450;DHT22;13371;52.080;5.624;2023-12-22T09:17:49;10.00;99.90
25450;DHT22;13371;52.080;5.624;2023-12-22T09:20:17;10.00;99.90
25450;DHT22;13371;52.080;5.624;2023-12-22T09:22:42;10.20;99.90
25450;DHT22;13371;52.080;5.624;2023-12-22T09:25:08;10.20;99.90
25450;DHT22;13371;52.080;5.624;2023-12-22T09:27:34;10.20;99.90
25450;DHT22;13371;52.080;5.624;2023-12-22T09:29:59;10.20;99.90
25450;DHT22;13371;52.080;5.624;2023-12-22T09:32:25;10.20;99.90
25450;DHT22;13371;52.080;5.624;2023-12-22T09:34:52;10.30;99.90
25450;DHT22;13371;52.080;5.624;2023-12-22T09:37:17;10.40;99.90
25450;DHT22;13371;52.080;5.624;2023-12-22T09:39:43;10.30;99.90
25450;DHT22;13371;52.080;5.624;2023-12-22T09:42:09;10.30;99.90
25450;DHT22;13371;52.080;5.624;2023-12-22T09:44:36;9.90;99.90
25450;DHT22;13371;52.080;5.624;2023-12-22T09:47:04;9.80;99.90
25450;DHT22;13371;52.080;5.624;2023-12-22T09:49:35;9.70;99.90
25450;DHT22;13371;52.080;5.624;2023-12-22T09:52:02;9.70;99.90
25450;DHT22;13371;52.080;5.624;2023-12-22T09:54:31;9.60;99.90
25450;DHT22;13371;52.080;5.624;2023-12-22T09:56:59;9.60;99.90
25450;DHT22;13371;52.080;5.624;2023-12-22T09:59:27;9.60;99.90
25450;DHT22;13371;52.080;5.624;2023-12-22T10:01:55;9.60;99.90
25450;DHT22;13371;52.080;5.624;2023-12-22T10:04:20;9.70;99.90
25450;DHT22;13371;52.080;5.624;2023-12-22T10:06:47;9.80;99.90
25450;DHT22;13371;52.080;5.624;2023-12-22T10:09:14;10.00;99.90
25450;DHT22;13371;52.080;5.624;2023-12-22T10:11:43;10.20;99.90
25450;DHT22;13371;52.080;5.624;2023-12-22T10:14:10;10.20;99.90
25450;DHT22;13371;52.080;5.624;2023-12-22T10:16:36;10.30;99.90
25450;DHT22;13371;52.080;5.624;2023-12-22T10:19:03;10.20;99.90
25450;DHT22;13371;52.080;5.624;2023-12-22T10:21:32;10.30;99.90
25450;DHT22;13371;52.080;5.624;2023-12-22T10:23:58;10.40;99.90
25450;DHT22;13371;52.080;5.624;2023-12-22T10:26:23;10.60;99.90
25450;DHT22;13371;52.080;5.624;2023-12-22T10:28:49;10.70;99.90
25450;DHT22;13371;52.080;5.624;2023-12-22T10:31:15;10.70;99.90
25450;DHT22;13371;52.080;5.624;2023-12-22T10:33:43;10.70;99.90
25450;DHT22;13371;52.080;5.624;2023-12-22T10:36:11;10.60;99.90
25450;DHT22;13371;52.080;5.624;2023-12-22T10:38:37;10.80;99.90
25450;DHT22;13371;52.080;5.624;2023-12-22T10:41:03;10.70;99.90
25450;DHT22;13371;52.080;5.624;2023-12-22T10:43:30;10.60;99.90
25450;DHT22;13371;52.080;5.624;2023-12-22T10:45:56;10.50;99.90
25450;DHT22;13371;52.080;5.624;2023-12-22T10:48:25;10.50;99.90
25450;DHT22;13371;52.080;5.624;2023-12-22T10:50:51;10.60;99.90
25450;DHT22;13371;52.080;5.624;2023-12-22T10:53:17;10.60;99.90
25450;DHT22;13371;52.080;5.624;2023-12-22T10:55:42;10.40;99.90
25450;DHT22;13371;52.080;5.624;2023-12-22T10:58:08;10.40;99.90
25450;DHT22;13371;52.080;5.624;2023-12-22T11:00:37;10.40;99.90
25450;DHT22;13371;52.080;5.624;2023-12-22T11:03:07;10.50;99.90
25450;DHT22;13371;52.080;5.624;2023-12-22T11:05:37;10.70;99.90
25450;DHT22;13371;52.080;5.624;2023-12-22T11:08:07;10.70;99.90
25450;DHT22;13371;52.080;5.624;2023-12-22T11:10:36;10.80;99.90
25450;DHT22;13371;52.080;5.624;2023-12-22T11:13:04;10.90;99.90
25450;DHT22;13371;52.080;5.624;2023-12-22T11:15:33;11.00;99.90
25450;DHT22;13371;52.080;5.624;2023-12-22T11:18:01;11.00;99.90
25450;DHT22;13371;52.080;5.624;2023-12-22T11:20:27;10.80;99.90
25450;DHT22;13371;52.080;5.624;2023-12-22T11:22:59;10.80;99.90
25450;DHT22;13371;52.080;5.624;2023-12-22T11:25:25;10.70;99.90
25450;DHT22;13371;52.080;5.624;2023-12-22T11:27:52;10.80;99.90
25450;DHT22;13371;52.080;5.624;2023-12-22T11:30:20;10.70;99.90
25450;DHT22;13371;52.080;5.624;2023-12-22T11:32:47;10.60;99.90
25450;DHT22;13371;52.080;5.624;2023-12-22T11:35:14;10.50;99.90
25450;DHT22;13371;52.080;5.624;2023-12-22T11:37:40;10.70;99.90
25450;DHT22;13371;52.080;5.624;2023-12-22T11:40:07;10.80;99.90
25450;DHT22;13371;52.080;5.624;2023-12-22T11:42:43;10.90;99.90
25450;DHT22;13371;52.080;5.624;2023-12-22T11:45:11;10.90;99.90
25450;DHT22;13371;52.080;5.624;2023-12-22T11:47:42;10.90;99.90
25450;DHT22;13371;52.080;5.624;2023-12-22T11:50:10;10.90;99.90
25450;DHT22;13371;52.080;5.624;2023-12-22T11:52:36;10.90;99.90
25450;DHT22;13371;52.080;5.624;2023-12-22T11:55:02;10.90;99.90
25450;DHT22;13371;52.080;5.624;2023-12-22T11:59:58;10.80;99.90
25450;DHT22;13371;52.080;5.624;2023-12-22T12:02:26;10.90;99.90
25450;DHT22;13371;52.080;5.624;2023-12-22T12:04:52;10.90;99.90
25450;DHT22;13371;52.080;5.624;2023-12-22T12:10:09;11.10;99.90
25450;DHT22;13371;52.080;5.624;2023-12-22T12:12:35;11.10;99.90
25450;DHT22;13371;52.080;5.624;2023-12-22T12:15:15;11.00;99.90
25450;DHT22;13371;52.080;5.624;2023-12-22T12:17:44;11.10;99.90
25450;DHT22;13371;52.080;5.624;2023-12-22T12:20:12;11.30;99.90
25450;DHT22;13371;52.080;5.624;2023-12-22T12:22:38;11.30;99.90
25450;DHT22;13371;52.080;5.624;2023-12-22T12:25:10;11.30;99.90
25450;DHT22;13371;52.080;5.624;2023-12-22T12:27:37;11.40;99.90
25450;DHT22;13371;52.080;5.624;2023-12-22T12:30:30;11.40;99.90
25450;DHT22;13371;52.080;5.624;2023-12-22T12:32:59;11.30;99.90
25450;DHT22;13371;52.080;5.624;2023-12-22T12:35:34;11.40;99.90
25450;DHT22;13371;52.080;5.624;2023-12-22T12:38:00;11.30;99.90
25450;DHT22;13371;52.080;5.624;2023-12-22T12:40:27;11.20;99.90
25450;DHT22;13371;52.080;5.624;2023-12-22T12:43:01;11.20;99.90
25450;DHT22;13371;52.080;5.624;2023-12-22T12:45:27;11.20;99.90
25450;DHT22;13371;52.080;5.624;2023-12-22T12:48:05;11.10;99.90
25450;DHT22;13371;52.080;5.624;2023-12-22T12:50:46;11.30;99.90
25450;DHT22;13371;52.080;5.624;2023-12-22T12:53:12;11.20;99.90
25450;DHT22;13371;52.080;5.624;2023-12-22T12:55:37;11.20;99.90
25450;DHT22;13371;52.080;5.624;2023-12-22T12:58:03;11.20;99.90
25450;DHT22;13371;52.080;5.624;2023-12-22T13:00:33;11.10;99.90
25450;DHT22;13371;52.080;5.624;2023-12-22T13:03:05;11.00;99.90
25450;DHT22;13371;52.080;5.624;2023-12-22T13:05:34;10.90;99.90
25450;DHT22;13371;52.080;5.624;2023-12-22T13:08:10;11.10;99.90
25450;DHT22;13371;52.080;5.624;2023-12-22T13:10:37;11.30;99.90
25450;DHT22;13371;52.080;5.624;2023-12-22T13:13:03;11.20;99.90
25450;DHT22;13371;52.080;5.624;2023-12-22T13:15:29;10.90;99.90
25450;DHT22;13371;52.080;5.624;2023-12-22T13:17:55;10.80;99.90
25450;DHT22;13371;52.080;5.624;2023-12-22T13:20:21;10.90;99.90
25450;DHT22;13371;52.080;5.624;2023-12-22T13:22:46;11.10;99.90
25450;DHT22;13371;52.080;5.624;2023-12-22T13:25:12;11.30;99.90
25450;DHT22;13371;52.080;5.624;2023-12-22T13:27:48;11.20;99.90
25450;DHT22;13371;52.080;5.624;2023-12-22T13:30:15;11.10;99.90
25450;DHT22;13371;52.080;5.624;2023-12-22T13:32:40;11.00;99.90
25450;DHT22;13371;52.080;5.624;2023-12-22T13:35:06;11.00;99.90
25450;DHT22;13371;52.080;5.624;2023-12-22T13:37:32;11.00;99.90
25450;DHT22;13371;52.080;5.624;2023-12-22T13:39:58;11.00;99.90
25450;DHT22;13371;52.080;5.624;2023-12-22T13:42:24;11.20;99.90
25450;DHT22;13371;52.080;5.624;2023-12-22T13:44:50;11.20;99.90
25450;DHT22;13371;52.080;5.624;2023-12-22T13:47:18;11.20;99.90
25450;DHT22;13371;52.080;5.624;2023-12-22T13:49:44;11.40;99.90
25450;DHT22;13371;52.080;5.624;2023-12-22T13:52:29;11.50;99.90
25450;DHT22;13371;52.080;5.624;2023-12-22T13:55:00;11.30;99.90
25450;DHT22;13371;52.080;5.624;2023-12-22T13:57:27;11.00;99.90
25450;DHT22;13371;52.080;5.624;2023-12-22T13:59:53;11.00;99.90
25450;DHT22;13371;52.080;5.624;2023-12-22T14:02:21;11.00;99.90
25450;DHT22;13371;52.080;5.624;2023-12-22T14:04:47;11.00;99.90
25450;DHT22;13371;52.080;5.624;2023-12-22T14:07:13;11.00;99.90
25450;DHT22;13371;52.080;5.624;2023-12-22T14:09:39;11.00;99.90
25450;DHT22;13371;52.080;5.624;2023-12-22T14:12:05;11.00;99.90
25450;DHT22;13371;52.080;5.624;2023-12-22T14:14:31;11.10;99.90
25450;DHT22;13371;52.080;5.624;2023-12-22T14:16:57;11.00;99.90
25450;DHT22;13371;52.080;5.624;2023-12-22T14:19:22;11.00;99.90
25450;DHT22;13371;52.080;5.624;2023-12-22T14:21:48;10.90;99.90
25450;DHT22;13371;52.080;5.624;2023-12-22T14:24:13;10.80;99.90
25450;DHT22;13371;52.080;5.624;2023-12-22T14:26:53;10.70;99.90
25450;DHT22;13371;52.080;5.624;2023-12-22T14:29:19;10.80;99.90
25450;DHT22;13371;52.080;5.624;2023-12-22T14:31:44;10.90;99.90
25450;DHT22;13371;52.080;5.624;2023-12-22T14:34:12;11.00;99.90
25450;DHT22;13371;52.080;5.624;2023-12-22T14:36:38;11.00;99.90
25450;DHT22;13371;52.080;5.624;2023-12-22T14:39:03;11.00;99.90
25450;DHT22;13371;52.080;5.624;2023-12-22T14:41:30;10.80;99.90
25450;DHT22;13371;52.080;5.624;2023-12-22T14:43:56;10.60;99.90
25450;DHT22;13371;52.080;5.624;2023-12-22T14:46:22;10.60;99.90
25450;DHT22;13371;52.080;5.624;2023-12-22T14:48:47;10.60;99.90
25450;DHT22;13371;52.080;5.624;2023-12-22T14:51:13;10.70;99.90
25450;DHT22;13371;52.080;5.624;2023-12-22T14:53:38;10.70;99.90
25450;DHT22;13371;52.080;5.624;2023-12-22T14:56:05;10.70;99.90
25450;DHT22;13371;52.080;5.624;2023-12-22T14:58:31;10.60;99.90
25450;DHT22;13371;52.080;5.624;2023-12-22T15:00:57;10.60;99.90
25450;DHT22;13371;52.080;5.624;2023-12-22T15:03:23;10.60;99.90
25450;DHT22;13371;52.080;5.624;2023-12-22T15:05:49;10.70;99.90
25450;DHT22;13371;52.080;5.624;2023-12-22T15:08:14;10.80;99.90
25450;DHT22;13371;52.080;5.624;2023-12-22T15:10:40;11.00;99.90
25450;DHT22;13371;52.080;5.624;2023-12-22T15:13:05;11.20;99.90
25450;DHT22;13371;52.080;5.624;2023-12-22T15:15:31;11.10;99.90
25450;DHT22;13371;52.080;5.624;2023-12-22T15:17:56;10.80;99.90
25450;DHT22;13371;52.080;5.624;2023-12-22T15:20:22;10.70;99.90
25450;DHT22;13371;52.080;5.624;2023-12-22T15:22:48;10.70;99.90
25450;DHT22;13371;52.080;5.624;2023-12-22T15:25:13;10.70;99.90
25450;DHT22;13371;52.080;5.624;2023-12-22T15:27:39;10.80;99.90
25450;DHT22;13371;52.080;5.624;2023-12-22T15:30:05;10.90;99.90
25450;DHT22;13371;52.080;5.624;2023-12-22T15:32:31;10.80;99.90
25450;DHT22;13371;52.080;5.624;2023-12-22T15:34:57;11.00;99.90
25450;DHT22;13371;52.080;5.624;2023-12-22T15:37:22;10.90;99.90
25450;DHT22;13371;52.080;5.624;2023-12-22T15:39:48;10.70;99.90
25450;DHT22;13371;52.080;5.624;2023-12-22T15:42:14;10.70;99.90
25450;DHT22;13371;52.080;5.624;2023-12-22T15:44:40;10.80;99.90